Wetterdaten: aktuell Sonntag, 23.02.2020 23:00
Datum Zeit Temp. Feuchte Luftdruck Nieders. Wind Richtung Richtung Sonnenschein Solar Taupunkt Windchill Windben
23.02.2020 23:00 8,3 C 72 % 1020,8 hPa 0,0 l/m 5,4 km/h (2 Bft) W-SW 254 0 min 0 W/m 3,6 C 8,3 C 17,7 km/h (3 Bft)
23.02.2020 22:55 8,3 C 73 % 1020,6 hPa 0,0 l/m 4,5 km/h (1 Bft) W-NW 294 0 min 0 W/m 3,8 C 8,3 C 14,5 km/h (3 Bft)
23.02.2020 22:50 8,3 C 73 % 1020,5 hPa 0,0 l/m 7,3 km/h (2 Bft) W 268 0 min 0 W/m 3,8 C 7,6 C 19,3 km/h (3 Bft)
23.02.2020 22:45 8,4 C 73 % 1020,5 hPa 0,0 l/m 8,1 km/h (2 Bft) NW 321 0 min 0 W/m 3,8 C 7,1 C 19,3 km/h (3 Bft)
23.02.2020 22:40 8,4 C 74 % 1020,3 hPa 0,0 l/m 5,8 km/h (2 Bft) NW 310 0 min 0 W/m 4,0 C 8,4 C 14,5 km/h (3 Bft)
23.02.2020 22:35 8,5 C 73 % 1020,1 hPa 0,0 l/m 6,9 km/h (2 Bft) NW 304 0 min 0 W/m 3,9 C 8,1 C 16,1 km/h (3 Bft)
23.02.2020 22:30 8,4 C 74 % 1020,0 hPa 0,0 l/m 8,0 km/h (2 Bft) W 261 0 min 0 W/m 4,0 C 7,2 C 19,3 km/h (3 Bft)
23.02.2020 22:25 8,4 C 75 % 1019,8 hPa 0,0 l/m 8,3 km/h (2 Bft) W-SW 250 0 min 0 W/m 4,2 C 7,0 C 24,1 km/h (4 Bft)
23.02.2020 22:20 8,4 C 76 % 1019,7 hPa 0,0 l/m 7,4 km/h (2 Bft) NW 316 0 min 0 W/m 4,4 C 7,6 C 29,0 km/h (5 Bft)
23.02.2020 22:15 8,5 C 77 % 1019,4 hPa 0,0 l/m 6,5 km/h (2 Bft) W-NW 283 0 min 0 W/m 4,7 C 8,4 C 16,1 km/h (3 Bft)
23.02.2020 22:10 8,5 C 76 % 1019,3 hPa 0,0 l/m 8,6 km/h (2 Bft) W-NW 299 0 min 0 W/m 4,5 C 6,9 C 24,1 km/h (4 Bft)
23.02.2020 22:05 8,5 C 77 % 1019,1 hPa 0,0 l/m 7,6 km/h (2 Bft) W-SW 257 0 min 0 W/m 4,7 C 7,6 C 19,3 km/h (3 Bft)
23.02.2020 22:00 8,6 C 77 % 1018,9 hPa 0,0 l/m 4,1 km/h (1 Bft) S 180 0 min 0 W/m 4,8 C 8,6 C 11,3 km/h (2 Bft)
23.02.2020 21:55 8,6 C 77 % 1018,9 hPa 0,0 l/m 4,7 km/h (1 Bft) W-NW 283 0 min 0 W/m 4,8 C 8,6 C 17,7 km/h (3 Bft)
23.02.2020 21:50 8,7 C 77 % 1018,8 hPa 0,0 l/m 8,5 km/h (2 Bft) NW 321 0 min 0 W/m 4,9 C 7,1 C 22,5 km/h (4 Bft)
23.02.2020 21:45 8,7 C 77 % 1018,7 hPa 0,0 l/m 7,0 km/h (2 Bft) W-NW 286 0 min 0 W/m 4,9 C 8,2 C 17,7 km/h (3 Bft)
23.02.2020 21:40 8,7 C 76 % 1018,5 hPa 0,0 l/m 5,3 km/h (1 Bft) W-SW 250 0 min 0 W/m 4,7 C 8,7 C 16,1 km/h (3 Bft)
23.02.2020 21:35 8,8 C 76 % 1018,4 hPa 0,0 l/m 8,2 km/h (2 Bft) W 273 0 min 0 W/m 4,8 C 7,5 C 20,9 km/h (4 Bft)
23.02.2020 21:30 8,8 C 76 % 1018,2 hPa 0,0 l/m 6,6 km/h (2 Bft) W-SW 257 0 min 0 W/m 4,8 C 8,7 C 20,9 km/h (4 Bft)
23.02.2020 21:25 8,8 C 76 % 1017,8 hPa 0,0 l/m 9,5 km/h (2 Bft) W 276 0 min 0 W/m 4,8 C 6,6 C 20,9 km/h (4 Bft)
23.02.2020 21:20 8,8 C 76 % 1017,4 hPa 0,0 l/m 7,9 km/h (2 Bft) W 263 0 min 0 W/m 4,8 C 7,7 C 19,3 km/h (3 Bft)
23.02.2020 21:15 8,8 C 77 % 1017,4 hPa 0,0 l/m 6,2 km/h (2 Bft) W 277 0 min 0 W/m 5,0 C 8,8 C 16,1 km/h (3 Bft)
23.02.2020 21:10 8,9 C 77 % 1017,2 hPa 0,0 l/m 6,3 km/h (2 Bft) W-NW 287 0 min 0 W/m 5,1 C 8,9 C 19,3 km/h (3 Bft)
23.02.2020 21:05 8,9 C 79 % 1017,0 hPa 0,0 l/m 8,8 km/h (2 Bft) W 277 0 min 0 W/m 5,5 C 7,1 C 24,1 km/h (4 Bft)
23.02.2020 21:00 8,9 C 81 % 1017,1 hPa 0,0 l/m 8,3 km/h (2 Bft) N-NW 348 0 min 0 W/m 5,8 C 7,5 C 22,5 km/h (4 Bft)
23.02.2020 20:55 8,9 C 82 % 1017,1 hPa 0,0 l/m 2,2 km/h (1 Bft) W 268 0 min 0 W/m 6,0 C 8,9 C 9,7 km/h (2 Bft)
23.02.2020 20:50 9,0 C 81 % 1016,8 hPa 0,0 l/m 7,4 km/h (2 Bft) W 265 0 min 0 W/m 5,9 C 8,2 C 22,5 km/h (4 Bft)
23.02.2020 20:45 9,1 C 80 % 1016,6 hPa 0,0 l/m 8,0 km/h (2 Bft) W-NW 298 0 min 0 W/m 5,8 C 7,9 C 24,1 km/h (4 Bft)
23.02.2020 20:40 9,1 C 80 % 1016,6 hPa 0,0 l/m 9,0 km/h (2 Bft) W 267 0 min 0 W/m 5,8 C 7,2 C 22,5 km/h (4 Bft)
23.02.2020 20:35 9,2 C 80 % 1016,4 hPa 0,0 l/m 8,1 km/h (2 Bft) W-NW 294 0 min 0 W/m 5,9 C 7,9 C 25,7 km/h (4 Bft)
23.02.2020 20:30 9,3 C 79 % 1016,2 hPa 0,0 l/m 10,2 km/h (2 Bft) N-NO 12 0 min 0 W/m 5,8 C 6,7 C 27,4 km/h (5 Bft)
23.02.2020 20:25 9,5 C 79 % 1016,1 hPa 0,0 l/m 9,7 km/h (2 Bft) NW 306 0 min 0 W/m 6,0 C 7,2 C 32,2 km/h (5 Bft)
23.02.2020 20:20 9,7 C 80 % 1015,9 hPa 0,0 l/m 11,1 km/h (2 Bft) W-NW 284 0 min 0 W/m 6,4 C 6,6 C 27,4 km/h (5 Bft)
23.02.2020 20:15 9,9 C 83 % 1015,8 hPa 0,0 l/m 11,1 km/h (2 Bft) W-NW 288 0 min 0 W/m 7,2 C 6,9 C 25,7 km/h (4 Bft)
23.02.2020 20:10 10,1 C 85 % 1015,7 hPa 0,0 l/m 10,7 km/h (2 Bft) NW 306 0 min 0 W/m 7,7 C 7,3 C 27,4 km/h (5 Bft)
23.02.2020 20:05 10,3 C 85 % 1015,4 hPa 0,0 l/m 9,1 km/h (2 Bft) N-NW 344 0 min 0 W/m 7,9 C 8,5 C 19,3 km/h (3 Bft)
23.02.2020 20:00 10,6 C 87 % 1015,2 hPa 0,0 l/m 9,1 km/h (2 Bft) N-NW 338 0 min 0 W/m 8,5 C 8,8 C 27,4 km/h (5 Bft)
23.02.2020 19:55 10,8 C 88 % 1014,8 hPa 0,2 l/m 7,0 km/h (2 Bft) W-NW 300 0 min 0 W/m 8,9 C 10,4 C 19,3 km/h (3 Bft)
23.02.2020 19:50 11,1 C 89 % 1014,4 hPa 0,0 l/m 8,7 km/h (2 Bft) N 9 0 min 0 W/m 9,4 C 9,6 C 27,4 km/h (5 Bft)
23.02.2020 19:45 11,3 C 89 % 1014,2 hPa 0,2 l/m 15,0 km/h (3 Bft) NW 304 0 min 0 W/m 9,6 C 6,7 C 43,5 km/h (6 Bft)
23.02.2020 19:40 11,5 C 90 % 1013,6 hPa 0,6 l/m 13,2 km/h (3 Bft) W 267 0 min 0 W/m 9,9 C 7,7 C 29,0 km/h (5 Bft)
23.02.2020 19:35 11,6 C 90 % 1013,2 hPa 0,2 l/m 9,1 km/h (2 Bft) W 281 0 min 0 W/m 10,0 C 9,9 C 17,7 km/h (3 Bft)
23.02.2020 19:30 11,6 C 89 % 1013,1 hPa 0,2 l/m 7,6 km/h (2 Bft) W 271 0 min 0 W/m 9,8 C 10,8 C 24,1 km/h (4 Bft)
23.02.2020 19:25 11,6 C 88 % 1013,1 hPa 0,0 l/m 7,2 km/h (2 Bft) W 273 0 min 0 W/m 9,7 C 11,1 C 24,1 km/h (4 Bft)
23.02.2020 19:20 11,6 C 88 % 1012,9 hPa 0,0 l/m 6,4 km/h (2 Bft) W-SW 245 0 min 0 W/m 9,7 C 11,6 C 20,9 km/h (4 Bft)
23.02.2020 19:15 11,7 C 88 % 1012,8 hPa 0,2 l/m 5,5 km/h (2 Bft) W-NW 284 0 min 0 W/m 9,8 C 11,7 C 19,3 km/h (3 Bft)
23.02.2020 19:10 11,7 C 88 % 1012,8 hPa 0,0 l/m 6,9 km/h (2 Bft) SW 221 0 min 0 W/m 9,8 C 11,4 C 24,1 km/h (4 Bft)
23.02.2020 19:05 11,7 C 88 % 1012,7 hPa 0,0 l/m 6,9 km/h (2 Bft) S-SW 213 0 min 0 W/m 9,8 C 11,4 C 22,5 km/h (4 Bft)
23.02.2020 19:00 11,8 C 87 % 1012,8 hPa 0,0 l/m 9,1 km/h (2 Bft) W-NW 284 0 min 0 W/m 9,7 C 10,1 C 22,5 km/h (4 Bft)
23.02.2020 18:55 11,8 C 87 % 1012,7 hPa 0,0 l/m 7,5 km/h (2 Bft) S-SW 209 0 min 0 W/m 9,7 C 11,1 C 16,1 km/h (3 Bft)
23.02.2020 18:50 11,9 C 86 % 1012,4 hPa 0,0 l/m 10,6 km/h (2 Bft) W 276 0 min 0 W/m 9,6 C 9,4 C 30,6 km/h (5 Bft)
23.02.2020 18:45 11,9 C 86 % 1012,5 hPa 0,0 l/m 10,6 km/h (2 Bft) W-SW 238 0 min 0 W/m 9,6 C 9,4 C 24,1 km/h (4 Bft)
23.02.2020 18:40 11,9 C 86 % 1012,3 hPa 0,0 l/m 8,6 km/h (2 Bft) S-SW 196 0 min 0 W/m 9,6 C 10,5 C 22,5 km/h (4 Bft)
23.02.2020 18:35 11,9 C 86 % 1012,2 hPa 0,0 l/m 12,5 km/h (2 Bft) W-NW 295 0 min 0 W/m 9,6 C 8,5 C 38,6 km/h (6 Bft)
23.02.2020 18:30 12,0 C 86 % 1012,2 hPa 0,0 l/m 8,7 km/h (2 Bft) SW 233 0 min 0 W/m 9,7 C 10,5 C 22,5 km/h (4 Bft)
23.02.2020 18:25 12,1 C 85 % 1012,1 hPa 0,2 l/m 12,7 km/h (3 Bft) W 259 0 min 0 W/m 9,7 C 8,6 C 37,0 km/h (5 Bft)
23.02.2020 18:20 12,2 C 85 % 1011,9 hPa 0,0 l/m 11,6 km/h (2 Bft) W-SW 254 0 min 0 W/m 9,8 C 9,2 C 32,2 km/h (5 Bft)
23.02.2020 18:15 12,4 C 83 % 1011,8 hPa 0,0 l/m 16,5 km/h (3 Bft) W-NW 297 0 min 0 W/m 9,6 C 7,5 C 41,8 km/h (6 Bft)
23.02.2020 18:10 12,4 C 83 % 1011,7 hPa 0,0 l/m 17,2 km/h (3 Bft) SW 221 0 min 0 W/m 9,6 C 7,3 C 46,7 km/h (6 Bft)
23.02.2020 18:05 12,4 C 82 % 1011,6 hPa 0,0 l/m 10,1 km/h (2 Bft) W-SW 244 0 min 0 W/m 9,4 C 10,2 C 43,5 km/h (6 Bft)
23.02.2020 18:00 12,5 C 82 % 1011,6 hPa 0,0 l/m 10,7 km/h (2 Bft) W 269 0 min 0 W/m 9,5 C 10,0 C 30,6 km/h (5 Bft)
23.02.2020 17:55 12,6 C 81 % 1011,5 hPa 0,0 l/m 12,1 km/h (2 Bft) NW 315 0 min 0 W/m 9,4 C 9,5 C 35,4 km/h (5 Bft)
23.02.2020 17:50 12,6 C 81 % 1011,5 hPa 0,0 l/m 9,4 km/h (2 Bft) SW 230 0 min 0 W/m 9,4 C 10,8 C 27,4 km/h (5 Bft)
23.02.2020 17:45 12,6 C 80 % 1011,5 hPa 0,0 l/m 13,4 km/h (3 Bft) W-SW 247 0 min 5 W/m 9,2 C 8,9 C 32,2 km/h (5 Bft)
23.02.2020 17:40 12,7 C 80 % 1011,4 hPa 0,0 l/m 12,0 km/h (2 Bft) W 267 0 min 11 W/m 9,3 C 9,6 C 29,0 km/h (5 Bft)
23.02.2020 17:35 12,7 C 80 % 1011,4 hPa 0,0 l/m 11,1 km/h (2 Bft) S 189 0 min 12 W/m 9,3 C 10,0 C 30,6 km/h (5 Bft)
23.02.2020 17:30 12,7 C 80 % 1011,3 hPa 0,0 l/m 14,2 km/h (3 Bft) S-SW 198 0 min 14 W/m 9,3 C 8,7 C 43,5 km/h (6 Bft)
23.02.2020 17:25 12,7 C 80 % 1011,4 hPa 0,0 l/m 11,2 km/h (2 Bft) W-SW 242 0 min 16 W/m 9,3 C 10,0 C 25,7 km/h (4 Bft)
23.02.2020 17:20 12,8 C 80 % 1011,4 hPa 0,0 l/m 9,2 km/h (2 Bft) W 265 0 min 19 W/m 9,4 C 11,1 C 22,5 km/h (4 Bft)
23.02.2020 17:15 12,8 C 80 % 1011,5 hPa 0,0 l/m 9,5 km/h (2 Bft) W-SW 247 0 min 25 W/m 9,4 C 10,9 C 24,1 km/h (4 Bft)
23.02.2020 17:10 12,9 C 79 % 1011,5 hPa 0,0 l/m 14,3 km/h (3 Bft) W-NW 283 0 min 25 W/m 9,3 C 8,9 C 29,0 km/h (5 Bft)
23.02.2020 17:05 13,1 C 79 % 1011,4 hPa 0,0 l/m 15,5 km/h (3 Bft) W-SW 245 0 min 35 W/m 9,5 C 8,7 C 35,4 km/h (5 Bft)
23.02.2020 17:00 13,1 C 79 % 1011,4 hPa 0,0 l/m 13,7 km/h (3 Bft) W-SW 246 0 min 46 W/m 9,5 C 9,4 C 30,6 km/h (5 Bft)
23.02.2020 16:55 13,1 C 79 % 1011,3 hPa 0,0 l/m 10,9 km/h (2 Bft) W 275 0 min 54 W/m 9,5 C 10,6 C 29,0 km/h (5 Bft)
23.02.2020 16:50 13,2 C 78 % 1011,3 hPa 0,0 l/m 15,5 km/h (3 Bft) W-SW 248 0 min 54 W/m 9,4 C 8,8 C 38,6 km/h (6 Bft)
23.02.2020 16:45 13,2 C 78 % 1011,3 hPa 0,0 l/m 13,5 km/h (3 Bft) N-NW 333 0 min 54 W/m 9,4 C 9,6 C 32,2 km/h (5 Bft)
23.02.2020 16:40 13,2 C 78 % 1011,1 hPa 0,0 l/m 15,3 km/h (3 Bft) W-NW 287 0 min 56 W/m 9,4 C 8,9 C 41,8 km/h (6 Bft)
23.02.2020 16:35 13,3 C 78 % 1011,1 hPa 0,0 l/m 16,1 km/h (3 Bft) W-NW 287 0 min 67 W/m 9,5 C 8,7 C 33,8 km/h (5 Bft)
23.02.2020 16:30 13,3 C 78 % 1011,2 hPa 0,0 l/m 15,0 km/h (3 Bft) W 273 0 min 74 W/m 9,5 C 9,1 C 38,6 km/h (6 Bft)
23.02.2020 16:25 13,3 C 77 % 1011,3 hPa 0,0 l/m 14,9 km/h (3 Bft) W 279 0 min 70 W/m 9,4 C 9,2 C 33,8 km/h (5 Bft)
23.02.2020 16:20 13,3 C 77 % 1011,4 hPa 0,0 l/m 17,1 km/h (3 Bft) NW 321 0 min 69 W/m 9,4 C 8,4 C 33,8 km/h (5 Bft)
23.02.2020 16:15 13,3 C 78 % 1011,1 hPa 0,0 l/m 13,5 km/h (3 Bft) W 268 0 min 58 W/m 9,5 C 9,7 C 30,6 km/h (5 Bft)
23.02.2020 16:10 13,4 C 77 % 1011,1 hPa 0,0 l/m 16,5 km/h (3 Bft) SW 236 0 min 79 W/m 9,5 C 8,7 C 53,1 km/h (7 Bft)
23.02.2020 16:05 13,4 C 77 % 1011,2 hPa 0,0 l/m 14,7 km/h (3 Bft) W 281 0 min 81 W/m 9,5 C 9,4 C 29,0 km/h (5 Bft)
23.02.2020 16:00 13,4 C 76 % 1011,1 hPa 0,0 l/m 14,7 km/h (3 Bft) NW 306 0 min 76 W/m 9,3 C 9,4 C 40,2 km/h (6 Bft)
23.02.2020 15:55 13,4 C 76 % 1011,1 hPa 0,0 l/m 15,6 km/h (3 Bft) NW 304 0 min 63 W/m 9,3 C 9,0 C 37,0 km/h (5 Bft)
23.02.2020 15:50 13,4 C 77 % 1011,2 hPa 0,0 l/m 16,9 km/h (3 Bft) NW 323 0 min 40 W/m 9,5 C 8,6 C 41,8 km/h (6 Bft)
23.02.2020 15:45 13,4 C 77 % 1011,2 hPa 0,0 l/m 14,0 km/h (3 Bft) S-SW 202 0 min 33 W/m 9,5 C 9,6 C 30,6 km/h (5 Bft)
23.02.2020 15:40 13,4 C 77 % 1011,2 hPa 0,0 l/m 13,3 km/h (3 Bft) W 261 0 min 51 W/m 9,5 C 9,9 C 33,8 km/h (5 Bft)
23.02.2020 15:35 13,4 C 77 % 1011,1 hPa 0,0 l/m 13,2 km/h (3 Bft) W 277 0 min 84 W/m 9,5 C 9,9 C 37,0 km/h (5 Bft)
23.02.2020 15:30 13,5 C 77 % 1011,0 hPa 0,0 l/m 16,6 km/h (3 Bft) S-SW 210 0 min 67 W/m 9,5 C 8,8 C 40,2 km/h (6 Bft)
23.02.2020 15:25 13,5 C 77 % 1011,0 hPa 0,0 l/m 13,9 km/h (3 Bft) W-SW 242 0 min 100 W/m 9,5 C 9,8 C 27,4 km/h (5 Bft)
23.02.2020 15:20 13,5 C 77 % 1010,9 hPa 0,0 l/m 14,0 km/h (3 Bft) SW 215 0 min 54 W/m 9,5 C 9,7 C 30,6 km/h (5 Bft)
23.02.2020 15:15 13,6 C 77 % 1010,9 hPa 0,0 l/m 9,7 km/h (2 Bft) W-NW 287 0 min 90 W/m 9,6 C 11,7 C 25,7 km/h (4 Bft)
23.02.2020 15:10 13,6 C 76 % 1011,1 hPa 0,0 l/m 14,0 km/h (3 Bft) W-NW 290 0 min 88 W/m 9,4 C 9,9 C 32,2 km/h (5 Bft)
23.02.2020 15:05 13,6 C 76 % 1011,1 hPa 0,0 l/m 15,0 km/h (3 Bft) NW 310 0 min 109 W/m 9,4 C 9,5 C 41,8 km/h (6 Bft)
23.02.2020 15:00 13,6 C 76 % 1011,1 hPa 0,0 l/m 17,0 km/h (3 Bft) S-SW 205 0 min 63 W/m 9,4 C 8,8 C 37,0 km/h (5 Bft)
23.02.2020 14:55 13,6 C 76 % 1011,3 hPa 0,0 l/m 16,9 km/h (3 Bft) S-SO 161 0 min 111 W/m 9,4 C 8,9 C 41,8 km/h (6 Bft)
23.02.2020 14:50 13,6 C 76 % 1011,2 hPa 0,0 l/m 16,8 km/h (3 Bft) W 271 0 min 97 W/m 9,4 C 8,9 C 33,8 km/h (5 Bft)
23.02.2020 14:45 13,5 C 77 % 1011,2 hPa 0,0 l/m 14,4 km/h (3 Bft) W 261 0 min 97 W/m 9,5 C 9,6 C 30,6 km/h (5 Bft)
23.02.2020 14:40 13,4 C 77 % 1011,0 hPa 0,0 l/m 13,5 km/h (3 Bft) W-SW 251 0 min 86 W/m 9,5 C 9,8 C 37,0 km/h (5 Bft)
23.02.2020 14:35 13,4 C 77 % 1011,1 hPa 0,0 l/m 13,9 km/h (3 Bft) SW 227 0 min 74 W/m 9,5 C 9,7 C 32,2 km/h (5 Bft)
23.02.2020 14:30 13,4 C 76 % 1011,2 hPa 0,0 l/m 16,0 km/h (3 Bft) W 266 0 min 70 W/m 9,3 C 8,9 C 41,8 km/h (6 Bft)
23.02.2020 14:25 13,3 C 77 % 1011,3 hPa 0,0 l/m 13,3 km/h (3 Bft) W-SW 254 0 min 58 W/m 9,4 C 9,8 C 35,4 km/h (5 Bft)
23.02.2020 14:20 13,3 C 77 % 1011,3 hPa 0,0 l/m 14,0 km/h (3 Bft) S-SW 201 0 min 74 W/m 9,4 C 9,5 C 38,6 km/h (6 Bft)
23.02.2020 14:15 13,3 C 77 % 1011,2 hPa 0,0 l/m 11,2 km/h (2 Bft) S-SO 157 0 min 40 W/m 9,4 C 10,7 C 27,4 km/h (5 Bft)
23.02.2020 14:10 13,3 C 77 % 1011,3 hPa 0,0 l/m 13,6 km/h (3 Bft) SW 227 0 min 44 W/m 9,4 C 9,7 C 33,8 km/h (5 Bft)
23.02.2020 14:05 13,3 C 77 % 1011,4 hPa 0,0 l/m 11,7 km/h (2 Bft) SO 144 0 min 40 W/m 9,4 C 10,4 C 29,0 km/h (5 Bft)
23.02.2020 14:00 13,2 C 78 % 1011,3 hPa 0,0 l/m 11,5 km/h (2 Bft) SW 232 0 min 53 W/m 9,4 C 10,4 C 37,0 km/h (5 Bft)
23.02.2020 13:55 13,2 C 78 % 1011,5 hPa 0,0 l/m 13,5 km/h (3 Bft) W-NW 290 0 min 97 W/m 9,4 C 9,6 C 33,8 km/h (5 Bft)
23.02.2020 13:50 13,1 C 78 % 1011,6 hPa 0,0 l/m 13,0 km/h (3 Bft) W-SW 253 0 min 49 W/m 9,4 C 9,7 C 30,6 km/h (5 Bft)
23.02.2020 13:45 13,1 C 79 % 1011,9 hPa 0,0 l/m 9,7 km/h (2 Bft) W-SW 256 0 min 58 W/m 9,5 C 11,2 C 30,6 km/h (5 Bft)
23.02.2020 13:40 12,9 C 79 % 1012,0 hPa 0,0 l/m 10,4 km/h (2 Bft) W-SW 237 0 min 79 W/m 9,3 C 10,6 C 29,0 km/h (5 Bft)
23.02.2020 13:35 12,9 C 79 % 1011,6 hPa 0,0 l/m 9,0 km/h (2 Bft) W-SW 241 0 min 69 W/m 9,3 C 11,3 C 22,5 km/h (4 Bft)
23.02.2020 13:30 12,8 C 79 % 1011,6 hPa 0,0 l/m 13,4 km/h (3 Bft) W-SW 238 0 min 47 W/m 9,2 C 9,1 C 40,2 km/h (6 Bft)
23.02.2020 13:25 12,7 C 80 % 1011,6 hPa 0,0 l/m 11,2 km/h (2 Bft) W-NW 286 0 min 51 W/m 9,3 C 10,0 C 33,8 km/h (5 Bft)
23.02.2020 13:20 12,2 C 82 % 1011,6 hPa 0,0 l/m 16,6 km/h (3 Bft) S-SW 207 0 min 35 W/m 9,2 C 7,2 C 37,0 km/h (5 Bft)
23.02.2020 13:15 11,6 C 85 % 1012,0 hPa 0,0 l/m 17,7 km/h (3 Bft) S-SW 192 0 min 37 W/m 9,2 C 6,1 C 32,2 km/h (5 Bft)
23.02.2020 13:10 11,4 C 86 % 1011,9 hPa 0,0 l/m 15,3 km/h (3 Bft) S 180 0 min 25 W/m 9,1 C 6,7 C 30,6 km/h (5 Bft)
23.02.2020 13:05 11,4 C 86 % 1012,0 hPa 0,0 l/m 15,9 km/h (3 Bft) S 186 0 min 49 W/m 9,1 C 6,5 C 32,2 km/h (5 Bft)
23.02.2020 13:00 11,4 C 86 % 1012,0 hPa 0,0 l/m 14,2 km/h (3 Bft) W-SW 241 0 min 33 W/m 9,1 C 7,2 C 25,7 km/h (4 Bft)
23.02.2020 12:55 11,3 C 86 % 1012,3 hPa 0,0 l/m 15,2 km/h (3 Bft) S 175 0 min 32 W/m 9,0 C 6,6 C 30,6 km/h (5 Bft)
23.02.2020 12:50 11,2 C 87 % 1012,6 hPa 0,0 l/m 14,7 km/h (3 Bft) W-SW 252 0 min 33 W/m 9,1 C 6,7 C 27,4 km/h (5 Bft)
23.02.2020 12:45 11,2 C 87 % 1012,5 hPa 0,0 l/m 16,9 km/h (3 Bft) S-SW 205 0 min 33 W/m 9,1 C 5,9 C 30,6 km/h (5 Bft)
23.02.2020 12:40 11,1 C 87 % 1012,3 hPa 0,0 l/m 15,5 km/h (3 Bft) S 170 0 min 46 W/m 9,0 C 6,3 C 33,8 km/h (5 Bft)
23.02.2020 12:35 11,1 C 87 % 1012,4 hPa 0,0 l/m 16,2 km/h (3 Bft) S 182 0 min 40 W/m 9,0 C 6,0 C 27,4 km/h (5 Bft)
23.02.2020 12:30 11,0 C 87 % 1012,6 hPa 0,0 l/m 17,3 km/h (3 Bft) S-SW 205 0 min 37 W/m 8,9 C 5,5 C 32,2 km/h (5 Bft)
23.02.2020 12:25 10,9 C 88 % 1012,6 hPa 0,0 l/m 16,3 km/h (3 Bft) S 188 0 min 35 W/m 9,0 C 5,7 C 30,6 km/h (5 Bft)
23.02.2020 12:20 10,8 C 88 % 1013,0 hPa 0,0 l/m 17,1 km/h (3 Bft) S-SW 209 0 min 44 W/m 8,9 C 5,3 C 37,0 km/h (5 Bft)
23.02.2020 12:15 10,8 C 88 % 1012,9 hPa 0,0 l/m 17,5 km/h (3 Bft) S-SW 198 0 min 39 W/m 8,9 C 5,2 C 33,8 km/h (5 Bft)
23.02.2020 12:10 10,7 C 89 % 1013,2 hPa 0,0 l/m 16,8 km/h (3 Bft) S 182 0 min 42 W/m 9,0 C 5,3 C 30,6 km/h (5 Bft)
23.02.2020 12:05 10,6 C 92 % 1013,3 hPa 0,0 l/m 16,7 km/h (3 Bft) S-SW 198 0 min 37 W/m 9,4 C 5,2 C 30,6 km/h (5 Bft)
23.02.2020 12:00 10,6 C 89 % 1013,5 hPa 0,0 l/m 16,6 km/h (3 Bft) S-SW 208 0 min 33 W/m 8,9 C 5,2 C 40,2 km/h (6 Bft)
23.02.2020 11:55 10,5 C 89 % 1013,3 hPa 0,0 l/m 17,9 km/h (3 Bft) S-SW 205 0 min 44 W/m 8,8 C 4,6 C 37,0 km/h (5 Bft)
23.02.2020 11:50 10,4 C 89 % 1013,5 hPa 0,0 l/m 17,4 km/h (3 Bft) SW 227 0 min 25 W/m 8,7 C 4,7 C 35,4 km/h (5 Bft)
23.02.2020 11:45 10,4 C 90 % 1014,0 hPa 0,0 l/m 17,1 km/h (3 Bft) S-SO 161 0 min 28 W/m 8,8 C 4,8 C 35,4 km/h (5 Bft)
23.02.2020 11:40 10,3 C 90 % 1013,9 hPa 0,0 l/m 18,1 km/h (3 Bft) S 188 0 min 28 W/m 8,7 C 4,3 C 35,4 km/h (5 Bft)
23.02.2020 11:35 10,3 C 90 % 1014,0 hPa 0,0 l/m 16,4 km/h (3 Bft) S-SW 203 0 min 33 W/m 8,7 C 4,9 C 33,8 km/h (5 Bft)
23.02.2020 11:30 10,2 C 90 % 1013,9 hPa 0,0 l/m 17,5 km/h (3 Bft) SW 214 0 min 33 W/m 8,6 C 4,4 C 29,0 km/h (5 Bft)
23.02.2020 11:25 10,1 C 90 % 1013,8 hPa 0,0 l/m 18,6 km/h (3 Bft) S 172 0 min 39 W/m 8,5 C 3,9 C 33,8 km/h (5 Bft)
23.02.2020 11:20 10,1 C 90 % 1014,0 hPa 0,0 l/m 20,9 km/h (4 Bft) S 183 0 min 25 W/m 8,5 C 3,1 C 35,4 km/h (5 Bft)
23.02.2020 11:15 10,0 C 91 % 1014,2 hPa 0,0 l/m 15,6 km/h (3 Bft) S 171 0 min 30 W/m 8,6 C 4,9 C 40,2 km/h (6 Bft)
23.02.2020 11:10 9,9 C 91 % 1014,2 hPa 0,0 l/m 17,4 km/h (3 Bft) S-SO 164 0 min 28 W/m 8,5 C 4,1 C 35,4 km/h (5 Bft)
23.02.2020 11:05 9,9 C 91 % 1014,1 hPa 0,0 l/m 17,0 km/h (3 Bft) S-SW 206 0 min 33 W/m 8,5 C 4,2 C 33,8 km/h (5 Bft)
23.02.2020 11:00 9,8 C 91 % 1014,0 hPa 0,0 l/m 17,9 km/h (3 Bft) S 186 0 min 35 W/m 8,4 C 3,8 C 33,8 km/h (5 Bft)
23.02.2020 10:55 9,8 C 91 % 1014,1 hPa 0,0 l/m 16,4 km/h (3 Bft) S 175 0 min 51 W/m 8,4 C 4,3 C 41,8 km/h (6 Bft)
23.02.2020 10:50 9,7 C 91 % 1014,0 hPa 0,0 l/m 17,2 km/h (3 Bft) S-SW 194 0 min 69 W/m 8,3 C 3,9 C 35,4 km/h (5 Bft)
23.02.2020 10:45 9,7 C 91 % 1013,8 hPa 0,0 l/m 17,4 km/h (3 Bft) S 185 0 min 63 W/m 8,3 C 3,8 C 35,4 km/h (5 Bft)
23.02.2020 10:40 9,6 C 91 % 1014,0 hPa 0,0 l/m 19,4 km/h (3 Bft) S 171 0 min 60 W/m 8,2 C 3,0 C 33,8 km/h (5 Bft)
23.02.2020 10:35 9,6 C 92 % 1014,1 hPa 0,0 l/m 17,3 km/h (3 Bft) SW 221 0 min 62 W/m 8,4 C 3,7 C 48,3 km/h (6 Bft)
23.02.2020 10:30 9,5 C 92 % 1014,4 hPa 0,0 l/m 19,1 km/h (3 Bft) SW 218 0 min 53 W/m 8,3 C 2,9 C 33,8 km/h (5 Bft)
23.02.2020 10:25 9,4 C 92 % 1014,5 hPa 0,0 l/m 17,0 km/h (3 Bft) SW 230 0 min 53 W/m 8,2 C 3,6 C 38,6 km/h (6 Bft)
23.02.2020 10:20 9,4 C 92 % 1014,7 hPa 0,0 l/m 19,2 km/h (3 Bft) S 186 0 min 35 W/m 8,2 C 2,8 C 38,6 km/h (6 Bft)
23.02.2020 10:15 9,4 C 92 % 1014,7 hPa 0,0 l/m 18,2 km/h (3 Bft) SW 233 0 min 26 W/m 8,2 C 3,1 C 46,7 km/h (6 Bft)
23.02.2020 10:10 9,4 C 92 % 1015,3 hPa 0,0 l/m 15,5 km/h (3 Bft) SW 229 0 min 23 W/m 8,2 C 4,2 C 43,5 km/h (6 Bft)
23.02.2020 10:05 9,4 C 92 % 1015,1 hPa 0,0 l/m 18,8 km/h (3 Bft) S 184 0 min 26 W/m 8,2 C 2,9 C 30,6 km/h (5 Bft)
23.02.2020 10:00 9,3 C 92 % 1015,2 hPa 0,0 l/m 15,1 km/h (3 Bft) SW 219 0 min 18 W/m 8,1 C 4,2 C 35,4 km/h (5 Bft)
23.02.2020 09:55 9,3 C 92 % 1015,3 hPa 0,0 l/m 18,5 km/h (3 Bft) S-SW 193 0 min 30 W/m 8,1 C 2,9 C 35,4 km/h (5 Bft)
23.02.2020 09:50 9,2 C 92 % 1015,3 hPa 0,0 l/m 16,5 km/h (3 Bft) S-SW 203 0 min 23 W/m 8,0 C 3,5 C 33,8 km/h (5 Bft)
23.02.2020 09:45 9,2 C 92 % 1015,5 hPa 0,0 l/m 13,9 km/h (3 Bft) S-SW 202 0 min 19 W/m 8,0 C 4,7 C 27,4 km/h (5 Bft)
23.02.2020 09:40 9,1 C 92 % 1015,5 hPa 0,0 l/m 9,8 km/h (2 Bft) SW 216 0 min 16 W/m 7,9 C 6,7 C 30,6 km/h (5 Bft)
23.02.2020 09:35 9,0 C 92 % 1015,6 hPa 0,0 l/m 12,3 km/h (2 Bft) S-SO 165 0 min 11 W/m 7,8 C 5,2 C 29,0 km/h (5 Bft)
23.02.2020 09:30 8,9 C 92 % 1015,6 hPa 0,0 l/m 9,3 km/h (2 Bft) S-SO 157 0 min 11 W/m 7,7 C 6,8 C 22,5 km/h (4 Bft)
23.02.2020 09:25 8,8 C 92 % 1015,8 hPa 0,0 l/m 10,6 km/h (2 Bft) S-SW 200 0 min 11 W/m 7,6 C 5,9 C 22,5 km/h (4 Bft)
23.02.2020 09:20 8,8 C 92 % 1015,8 hPa 0,0 l/m 10,8 km/h (2 Bft) S 190 0 min 11 W/m 7,6 C 5,8 C 20,9 km/h (4 Bft)
23.02.2020 09:15 8,7 C 92 % 1015,9 hPa 0,0 l/m 12,2 km/h (2 Bft) S-SO 154 0 min 9 W/m 7,5 C 4,9 C 25,7 km/h (4 Bft)
23.02.2020 09:10 8,7 C 92 % 1016,0 hPa 0,0 l/m 10,1 km/h (2 Bft) S-SO 165 0 min 9 W/m 7,5 C 6,1 C 17,7 km/h (3 Bft)
23.02.2020 09:05 8,7 C 92 % 1016,1 hPa 0,0 l/m 10,7 km/h (2 Bft) SW 221 0 min 7 W/m 7,5 C 5,7 C 20,9 km/h (4 Bft)
23.02.2020 09:00 8,7 C 91 % 1016,2 hPa 0,0 l/m 7,1 km/h (2 Bft) S-SW 199 0 min 7 W/m 7,3 C 8,2 C 22,5 km/h (4 Bft)
23.02.2020 08:55 8,7 C 91 % 1016,3 hPa 0,2 l/m 8,7 km/h (2 Bft) S-SW 201 0 min 5 W/m 7,3 C 7,0 C 16,1 km/h (3 Bft)
23.02.2020 08:50 8,7 C 91 % 1016,2 hPa 0,0 l/m 10,4 km/h (2 Bft) S 171 0 min 7 W/m 7,3 C 5,9 C 22,5 km/h (4 Bft)
23.02.2020 08:45 8,7 C 91 % 1016,4 hPa 0,0 l/m 9,6 km/h (2 Bft) SO 133 0 min 7 W/m 7,3 C 6,4 C 20,9 km/h (4 Bft)
23.02.2020 08:40 8,8 C 91 % 1016,5 hPa 0,2 l/m 10,6 km/h (2 Bft) S-SO 168 0 min 5 W/m 7,4 C 5,9 C 24,1 km/h (4 Bft)
23.02.2020 08:35 8,8 C 91 % 1016,8 hPa 0,2 l/m 10,6 km/h (2 Bft) S-SO 166 0 min 5 W/m 7,4 C 5,9 C 20,9 km/h (4 Bft)
23.02.2020 08:30 8,8 C 91 % 1017,0 hPa 0,0 l/m 8,2 km/h (2 Bft) S-SO 152 0 min 5 W/m 7,4 C 7,5 C 17,7 km/h (3 Bft)
23.02.2020 08:25 8,8 C 91 % 1017,1 hPa 0,0 l/m 11,3 km/h (2 Bft) SO 140 0 min 5 W/m 7,4 C 5,5 C 22,5 km/h (4 Bft)
23.02.2020 08:20 8,8 C 91 % 1017,2 hPa 0,2 l/m 8,1 km/h (2 Bft) SO 128 0 min 5 W/m 7,4 C 7,5 C 27,4 km/h (5 Bft)
23.02.2020 08:15 8,9 C 91 % 1017,6 hPa 0,0 l/m 7,8 km/h (2 Bft) S-SO 159 0 min 5 W/m 7,5 C 7,8 C 17,7 km/h (3 Bft)
23.02.2020 08:10 8,9 C 91 % 1017,8 hPa 0,0 l/m 8,0 km/h (2 Bft) S 188 0 min 7 W/m 7,5 C 7,7 C 20,9 km/h (4 Bft)
23.02.2020 08:05 8,9 C 90 % 1018,0 hPa 0,2 l/m 7,1 km/h (2 Bft) SW 225 0 min 0 W/m 7,4 C 8,4 C 20,9 km/h (4 Bft)
23.02.2020 08:00 8,9 C 90 % 1018,0 hPa 0,0 l/m 10,4 km/h (2 Bft) SW 215 0 min 0 W/m 7,4 C 6,1 C 20,9 km/h (4 Bft)
23.02.2020 07:55 8,9 C 90 % 1018,0 hPa 0,0 l/m 10,7 km/h (2 Bft) SO 146 0 min 0 W/m 7,4 C 6,0 C 22,5 km/h (4 Bft)
23.02.2020 07:50 8,9 C 90 % 1018,2 hPa 0,0 l/m 11,1 km/h (2 Bft) S 178 0 min 0 W/m 7,4 C 5,7 C 25,7 km/h (4 Bft)
23.02.2020 07:45 8,9 C 90 % 1018,4 hPa 0,2 l/m 9,6 km/h (2 Bft) S 180 0 min 0 W/m 7,4 C 6,6 C 20,9 km/h (4 Bft)
23.02.2020 07:40 9,1 C 90 % 1018,5 hPa 0,0 l/m 9,9 km/h (2 Bft) S 176 0 min 0 W/m 7,5 C 6,7 C 24,1 km/h (4 Bft)
23.02.2020 07:35 9,1 C 89 % 1018,6 hPa 0,0 l/m 11,7 km/h (2 Bft) SO 140 0 min 0 W/m 7,4 C 5,6 C 19,3 km/h (3 Bft)
23.02.2020 07:30 9,1 C 89 % 1018,8 hPa 0,0 l/m 11,6 km/h (2 Bft) S-SW 194 0 min 0 W/m 7,4 C 5,7 C 27,4 km/h (5 Bft)
23.02.2020 07:25 9,2 C 89 % 1019,0 hPa 0,2 l/m 11,8 km/h (2 Bft) SW 235 0 min 0 W/m 7,5 C 5,7 C 24,1 km/h (4 Bft)
23.02.2020 07:20 9,2 C 89 % 1019,2 hPa 0,2 l/m 12,1 km/h (2 Bft) S 188 0 min 0 W/m 7,5 C 5,5 C 27,4 km/h (5 Bft)
23.02.2020 07:15 9,1 C 89 % 1019,3 hPa 0,0 l/m 15,8 km/h (3 Bft) S-SW 205 0 min 0 W/m 7,4 C 3,7 C 29,0 km/h (5 Bft)
23.02.2020 07:10 9,1 C 90 % 1019,3 hPa 0,0 l/m 12,9 km/h (3 Bft) S-SW 198 0 min 0 W/m 7,5 C 5,0 C 24,1 km/h (4 Bft)
23.02.2020 07:05 9,1 C 90 % 1019,2 hPa 0,2 l/m 11,5 km/h (2 Bft) S 169 0 min 0 W/m 7,5 C 5,7 C 19,3 km/h (3 Bft)
23.02.2020 07:00 9,1 C 90 % 1019,3 hPa 0,0 l/m 11,4 km/h (2 Bft) S 190 0 min 0 W/m 7,5 C 5,8 C 30,6 km/h (5 Bft)
23.02.2020 06:55 9,1 C 91 % 1019,3 hPa 0,2 l/m 12,5 km/h (2 Bft) S-SW 198 0 min 0 W/m 7,7 C 5,2 C 29,0 km/h (5 Bft)
23.02.2020 06:50 9,1 C 91 % 1019,3 hPa 0,0 l/m 11,5 km/h (2 Bft) S 171 0 min 0 W/m 7,7 C 5,7 C 24,1 km/h (4 Bft)
23.02.2020 06:45 9,1 C 91 % 1019,3 hPa 0,0 l/m 8,7 km/h (2 Bft) SO 136 0 min 0 W/m 7,7 C 7,4 C 17,7 km/h (3 Bft)
23.02.2020 06:40 9,1 C 91 % 1019,6 hPa 0,2 l/m 10,4 km/h (2 Bft) SO 146 0 min 0 W/m 7,7 C 6,4 C 20,9 km/h (4 Bft)
23.02.2020 06:35 9,1 C 91 % 1019,6 hPa 0,0 l/m 8,0 km/h (2 Bft) S 182 0 min 0 W/m 7,7 C 7,9 C 19,3 km/h (3 Bft)
23.02.2020 06:30 9,1 C 91 % 1019,7 hPa 0,2 l/m 9,7 km/h (2 Bft) S-SO 161 0 min 0 W/m 7,7 C 6,8 C 24,1 km/h (4 Bft)
23.02.2020 06:25 9,1 C 91 % 1019,7 hPa 0,0 l/m 9,2 km/h (2 Bft) SW 215 0 min 0 W/m 7,7 C 7,1 C 19,3 km/h (3 Bft)
23.02.2020 06:20 9,1 C 90 % 1019,6 hPa 0,0 l/m 10,8 km/h (2 Bft) S 175 0 min 0 W/m 7,5 C 6,1 C 20,9 km/h (4 Bft)
23.02.2020 06:15 9,1 C 91 % 1019,8 hPa 0,0 l/m 9,8 km/h (2 Bft) S 175 0 min 0 W/m 7,7 C 6,7 C 19,3 km/h (3 Bft)
23.02.2020 06:10 9,1 C 91 % 1019,8 hPa 0,0 l/m 10,4 km/h (2 Bft) S-SW 194 0 min 0 W/m 7,7 C 6,4 C 20,9 km/h (4 Bft)
23.02.2020 06:05 9,2 C 90 % 1020,1 hPa 0,0 l/m 10,8 km/h (2 Bft) S-SW 204 0 min 0 W/m 7,6 C 6,2 C 20,9 km/h (4 Bft)
23.02.2020 05:55 9,2 C 90 % 1020,1 hPa 0,2 l/m 9,7 km/h (2 Bft) S-SW 202 0 min 0 W/m 7,6 C 6,9 C 17,7 km/h (3 Bft)
23.02.2020 05:50 9,2 C 90 % 1020,1 hPa 0,0 l/m 9,7 km/h (2 Bft) S 180 0 min 0 W/m 7,6 C 6,9 C 22,5 km/h (4 Bft)
23.02.2020 05:45 9,3 C 90 % 1020,3 hPa 0,0 l/m 9,7 km/h (2 Bft) S-SW 202 0 min 0 W/m 7,7 C 7,0 C 17,7 km/h (3 Bft)
23.02.2020 05:40 9,3 C 90 % 1020,3 hPa 0,2 l/m 9,7 km/h (2 Bft) S 180 0 min 0 W/m 7,7 C 7,0 C 22,5 km/h (4 Bft)
23.02.2020 05:35 9,4 C 89 % 1020,3 hPa 0,0 l/m 8,0 km/h (2 Bft) S 180 0 min 0 W/m 7,7 C 8,2 C 20,9 km/h (4 Bft)
23.02.2020 05:30 9,4 C 89 % 1020,4 hPa 0,0 l/m 11,3 km/h (2 Bft) S-SW 202 0 min 0 W/m 7,7 C 6,2 C 22,5 km/h (4 Bft)
23.02.2020 05:25 9,4 C 88 % 1020,3 hPa 0,0 l/m 9,7 km/h (2 Bft) S-SW 202 0 min 0 W/m 7,5 C 7,1 C 24,1 km/h (4 Bft)
23.02.2020 05:20 9,4 C 88 % 1020,3 hPa 0,0 l/m 9,7 km/h (2 Bft) S 180 0 min 0 W/m 7,5 C 7,1 C 17,7 km/h (3 Bft)
23.02.2020 05:15 9,3 C 88 % 1020,4 hPa 0,0 l/m 12,9 km/h (3 Bft) S 180 0 min 0 W/m 7,4 C 5,3 C 22,5 km/h (4 Bft)
23.02.2020 05:10 9,4 C 88 % 1020,3 hPa 0,0 l/m 9,7 km/h (2 Bft) S-SW 202 0 min 0 W/m 7,5 C 7,1 C 25,7 km/h (4 Bft)
23.02.2020 05:05 9,5 C 87 % 1020,4 hPa 0,0 l/m 11,3 km/h (2 Bft) S-SW 202 0 min 0 W/m 7,4 C 6,3 C 27,4 km/h (5 Bft)
23.02.2020 05:00 9,6 C 86 % 1020,4 hPa 0,0 l/m 12,9 km/h (3 Bft) S 180 0 min 0 W/m 7,4 C 5,6 C 24,1 km/h (4 Bft)
23.02.2020 04:55 9,7 C 86 % 1020,4 hPa 0,0 l/m 9,7 km/h (2 Bft) S-SW 202 0 min 0 W/m 7,5 C 7,4 C 17,7 km/h (3 Bft)
23.02.2020 04:50 9,7 C 85 % 1020,5 hPa 0,0 l/m 11,3 km/h (2 Bft) S-SW 202 0 min 0 W/m 7,3 C 6,5 C 17,7 km/h (3 Bft)
23.02.2020 04:45 9,7 C 85 % 1020,5 hPa 0,0 l/m 9,7 km/h (2 Bft) S-SW 202 0 min 0 W/m 7,3 C 7,4 C 19,3 km/h (3 Bft)
23.02.2020 04:40 9,7 C 85 % 1020,6 hPa 0,0 l/m 9,7 km/h (2 Bft) S-SW 202 0 min 0 W/m 7,3 C 7,4 C 24,1 km/h (4 Bft)
23.02.2020 04:35 9,6 C 86 % 1020,9 hPa 0,0 l/m 9,7 km/h (2 Bft) S-SW 202 0 min 0 W/m 7,4 C 7,3 C 19,3 km/h (3 Bft)
23.02.2020 04:30 9,5 C 87 % 1020,9 hPa 0,0 l/m 8,0 km/h (2 Bft) S-SW 202 0 min 0 W/m 7,4 C 8,3 C 22,5 km/h (4 Bft)
23.02.2020 04:25 9,4 C 88 % 1021,0 hPa 0,0 l/m 8,0 km/h (2 Bft) S-SW 202 0 min 0 W/m 7,5 C 8,2 C 22,5 km/h (4 Bft)
23.02.2020 04:20 9,4 C 88 % 1021,0 hPa 0,0 l/m 8,0 km/h (2 Bft) S 180 0 min 0 W/m 7,5 C 8,2 C 19,3 km/h (3 Bft)
23.02.2020 04:15 9,3 C 89 % 1021,1 hPa 0,0 l/m 11,3 km/h (2 Bft) S-SW 202 0 min 0 W/m 7,6 C 6,1 C 25,7 km/h (4 Bft)
23.02.2020 04:10 9,2 C 90 % 1021,1 hPa 0,0 l/m 9,7 km/h (2 Bft) S-SW 202 0 min 0 W/m 7,6 C 6,9 C 20,9 km/h (4 Bft)
23.02.2020 04:05 9,1 C 90 % 1021,0 hPa 0,0 l/m 9,7 km/h (2 Bft) S 180 0 min 0 W/m 7,5 C 6,8 C 17,7 km/h (3 Bft)
23.02.2020 04:00 9,1 C 90 % 1021,0 hPa 0,0 l/m 6,4 km/h (2 Bft) S 180 0 min 0 W/m 7,5 C 9,1 C 19,3 km/h (3 Bft)
23.02.2020 03:55 9,1 C 90 % 1021,1 hPa 0,0 l/m 6,4 km/h (2 Bft) S-SW 202 0 min 0 W/m 7,5 C 9,1 C 17,7 km/h (3 Bft)
23.02.2020 03:50 9,1 C 90 % 1021,2 hPa 0,0 l/m 6,4 km/h (2 Bft) S-SW 202 0 min 0 W/m 7,5 C 9,1 C 14,5 km/h (3 Bft)
23.02.2020 03:45 9,1 C 90 % 1021,3 hPa 0,0 l/m 6,4 km/h (2 Bft) S 180 0 min 0 W/m 7,5 C 9,1 C 16,1 km/h (3 Bft)
23.02.2020 03:40 9,1 C 90 % 1021,2 hPa 0,0 l/m 9,7 km/h (2 Bft) S 180 0 min 0 W/m 7,5 C 6,8 C 19,3 km/h (3 Bft)
23.02.2020 03:35 9,0 C 90 % 1021,3 hPa 0,0 l/m 6,4 km/h (2 Bft) S 180 0 min 0 W/m 7,4 C 9,0 C 16,1 km/h (3 Bft)
23.02.2020 03:30 9,1 C 90 % 1021,2 hPa 0,0 l/m 6,4 km/h (2 Bft) S 180 0 min 0 W/m 7,5 C 9,1 C 16,1 km/h (3 Bft)
23.02.2020 03:25 9,1 C 90 % 1021,4 hPa 0,0 l/m 6,4 km/h (2 Bft) S-SW 202 0 min 0 W/m 7,5 C 9,1 C 16,1 km/h (3 Bft)
23.02.2020 03:20 9,2 C 90 % 1021,6 hPa 0,0 l/m 9,7 km/h (2 Bft) S 180 0 min 0 W/m 7,6 C 6,9 C 22,5 km/h (4 Bft)
23.02.2020 03:15 9,3 C 89 % 1021,7 hPa 0,0 l/m 11,3 km/h (2 Bft) S 180 0 min 0 W/m 7,6 C 6,1 C 20,9 km/h (4 Bft)
23.02.2020 03:10 9,4 C 88 % 1021,8 hPa 0,0 l/m 9,7 km/h (2 Bft) S-SW 202 0 min 0 W/m 7,5 C 7,1 C 22,5 km/h (4 Bft)
23.02.2020 03:05 9,5 C 87 % 1022,1 hPa 0,0 l/m 8,0 km/h (2 Bft) S-SO 157 0 min 0 W/m 7,4 C 8,3 C 19,3 km/h (3 Bft)
23.02.2020 03:00 9,6 C 87 % 1022,0 hPa 0,0 l/m 6,4 km/h (2 Bft) S 180 0 min 0 W/m 7,5 C 9,6 C 12,9 km/h (3 Bft)
23.02.2020 02:55 9,7 C 86 % 1021,9 hPa 0,0 l/m 9,7 km/h (2 Bft) S-SW 202 0 min 0 W/m 7,5 C 7,4 C 16,1 km/h (3 Bft)
23.02.2020 02:50 9,7 C 86 % 1022,0 hPa 0,0 l/m 8,0 km/h (2 Bft) S-SW 202 0 min 0 W/m 7,5 C 8,5 C 19,3 km/h (3 Bft)
23.02.2020 02:45 9,7 C 86 % 1021,9 hPa 0,0 l/m 9,7 km/h (2 Bft) SW 225 0 min 0 W/m 7,5 C 7,4 C 17,7 km/h (3 Bft)
23.02.2020 02:40 9,7 C 86 % 1021,9 hPa 0,0 l/m 8,0 km/h (2 Bft) S-SW 202 0 min 0 W/m 7,5 C 8,5 C 16,1 km/h (3 Bft)
23.02.2020 02:35 9,7 C 86 % 1022,0 hPa 0,0 l/m 9,7 km/h (2 Bft) S-SW 202 0 min 0 W/m 7,5 C 7,4 C 24,1 km/h (4 Bft)
23.02.2020 02:30 9,8 C 85 % 1022,2 hPa 0,0 l/m 12,9 km/h (3 Bft) S-SW 202 0 min 0 W/m 7,4 C 5,8 C 20,9 km/h (4 Bft)
23.02.2020 02:25 10,0 C 83 % 1022,3 hPa 0,0 l/m 8,0 km/h (2 Bft) SW 225 0 min 0 W/m 7,2 C 8,9 C 19,3 km/h (3 Bft)
23.02.2020 02:20 10,1 C 82 % 1022,2 hPa 0,0 l/m 3,2 km/h (1 Bft) S-SW 202 0 min 0 W/m 7,2 C 10,1 C 9,7 km/h (2 Bft)
23.02.2020 02:15 10,1 C 82 % 1022,2 hPa 0,0 l/m 4,8 km/h (1 Bft) SW 225 0 min 0 W/m 7,2 C 10,1 C 12,9 km/h (3 Bft)
23.02.2020 02:10 10,1 C 82 % 1022,2 hPa 0,0 l/m 4,8 km/h (1 Bft) W 270 0 min 0 W/m 7,2 C 10,1 C 24,1 km/h (4 Bft)
23.02.2020 02:05 10,0 C 82 % 1022,3 hPa 0,0 l/m 4,8 km/h (1 Bft) W-SW 247 0 min 0 W/m 7,1 C 10,0 C 14,5 km/h (3 Bft)
23.02.2020 02:00 9,9 C 83 % 1022,4 hPa 0,0 l/m 8,0 km/h (2 Bft) W 270 0 min 0 W/m 7,2 C 8,7 C 19,3 km/h (3 Bft)
23.02.2020 01:55 9,8 C 84 % 1022,4 hPa 0,0 l/m 3,2 km/h (1 Bft) SW 225 0 min 0 W/m 7,2 C 9,8 C 14,5 km/h (3 Bft)
23.02.2020 01:50 9,7 C 84 % 1022,4 hPa 0,0 l/m 4,8 km/h (1 Bft) W-SW 247 0 min 0 W/m 7,1 C 9,7 C 16,1 km/h (3 Bft)
23.02.2020 01:45 9,7 C 85 % 1022,4 hPa 0,0 l/m 3,2 km/h (1 Bft) S-SW 202 0 min 0 W/m 7,3 C 9,7 C 12,9 km/h (3 Bft)
23.02.2020 01:40 9,5 C 85 % 1022,4 hPa 0,0 l/m 6,4 km/h (2 Bft) W-SW 247 0 min 0 W/m 7,1 C 9,5 C 19,3 km/h (3 Bft)
23.02.2020 01:35 9,3 C 87 % 1022,2 hPa 0,0 l/m 6,4 km/h (2 Bft) S-SW 202 0 min 0 W/m 7,2 C 9,3 C 19,3 km/h (3 Bft)
23.02.2020 01:30 9,2 C 87 % 1022,3 hPa 0,0 l/m 4,8 km/h (1 Bft) S-SW 202 0 min 0 W/m 7,2 C 9,2 C 17,7 km/h (3 Bft)
23.02.2020 01:25 9,1 C 87 % 1022,2 hPa 0,0 l/m 6,4 km/h (2 Bft) S 180 0 min 0 W/m 7,1 C 9,1 C 16,1 km/h (3 Bft)
23.02.2020 01:20 9,1 C 88 % 1022,4 hPa 0,0 l/m 8,0 km/h (2 Bft) S-SW 202 0 min 0 W/m 7,2 C 7,9 C 19,3 km/h (3 Bft)
23.02.2020 01:15 9,1 C 88 % 1022,3 hPa 0,0 l/m 9,7 km/h (2 Bft) S-SW 202 0 min 0 W/m 7,2 C 6,8 C 17,7 km/h (3 Bft)
23.02.2020 01:10 9,0 C 88 % 1022,4 hPa 0,0 l/m 9,7 km/h (2 Bft) S-SW 202 0 min 0 W/m 7,1 C 6,7 C 19,3 km/h (3 Bft)
23.02.2020 01:05 9,0 C 88 % 1022,4 hPa 0,0 l/m 8,0 km/h (2 Bft) SW 225 0 min 0 W/m 7,1 C 7,8 C 20,9 km/h (4 Bft)
23.02.2020 01:00 9,1 C 88 % 1022,3 hPa 0,0 l/m 9,7 km/h (2 Bft) S-SW 202 0 min 0 W/m 7,2 C 6,8 C 17,7 km/h (3 Bft)
23.02.2020 00:55 9,1 C 87 % 1022,2 hPa 0,0 l/m 9,7 km/h (2 Bft) S 180 0 min 0 W/m 7,1 C 6,8 C 19,3 km/h (3 Bft)
23.02.2020 00:50 9,2 C 87 % 1022,3 hPa 0,0 l/m 9,7 km/h (2 Bft) SW 225 0 min 0 W/m 7,2 C 6,9 C 19,3 km/h (3 Bft)
23.02.2020 00:45 9,2 C 86 % 1022,3 hPa 0,0 l/m 9,7 km/h (2 Bft) S-SW 202 0 min 0 W/m 7,0 C 6,9 C 16,1 km/h (3 Bft)
23.02.2020 00:40 9,3 C 85 % 1022,2 hPa 0,0 l/m 9,7 km/h (2 Bft) S-SW 202 0 min 0 W/m 6,9 C 7,0 C 20,9 km/h (4 Bft)
23.02.2020 00:35 9,6 C 84 % 1022,4 hPa 0,0 l/m 9,7 km/h (2 Bft) S-SW 202 0 min 0 W/m 7,0 C 7,3 C 20,9 km/h (4 Bft)
23.02.2020 00:30 9,8 C 82 % 1022,5 hPa 0,0 l/m 11,3 km/h (2 Bft) S-SW 202 0 min 0 W/m 6,9 C 6,6 C 30,6 km/h (5 Bft)
23.02.2020 00:25 9,9 C 81 % 1022,4 hPa 0,0 l/m 11,3 km/h (2 Bft) S-SW 202 0 min 0 W/m 6,8 C 6,8 C 22,5 km/h (4 Bft)
23.02.2020 00:20 10,0 C 79 % 1022,3 hPa 0,0 l/m 11,3 km/h (2 Bft) S-SW 202 0 min 0 W/m 6,5 C 6,9 C 19,3 km/h (3 Bft)
23.02.2020 00:15 10,1 C 79 % 1022,2 hPa 0,0 l/m 9,7 km/h (2 Bft) S-SW 202 0 min 0 W/m 6,6 C 7,9 C 25,7 km/h (4 Bft)
23.02.2020 00:10 10,1 C 78 % 1022,1 hPa 0,0 l/m 9,7 km/h (2 Bft) SW 225 0 min 0 W/m 6,4 C 7,9 C 20,9 km/h (4 Bft)
23.02.2020 00:05 10,1 C 79 % 1022,0 hPa 0,0 l/m 9,7 km/h (2 Bft) S-SW 202 0 min 0 W/m 6,6 C 7,9 C 20,9 km/h (4 Bft)
23.02.2020 00:00 10,1 C 79 % 1022,0 hPa 0,0 l/m 9,7 km/h (2 Bft) S-SW 202 0 min 0 W/m 6,6 C 7,9 C 22,5 km/h (4 Bft)
_ Min-Zeit 23:00 23:00 15:15 - 20:55 - - - - 23:00 10:20 02:20
Minimum _ 8,2 C 72 % 1010,9 hPa - 2,2 km/h (1 Bft) - - - - 3,6 C 2,8 C 9,7 km/h (2 Bft)
_ Max-Zeit 14:50 09:05 00:30 19:40 11:20 - - 00:00 14:55 19:35 15:15 16:10
Maximum _ 13,6 C 92 % 1022,5 hPa 0,6 l/m 20,9 km/h
S (4 Bft)
- - 0 min 111 W/m 10,0 C 11,7 C 53,1 km/h
S-SO (7 Bft)
Durchschnitt _ 10,4 C 85 % 1016,4 hPa #4,6 l/m 11,2 km/h (2 Bft) S-SW - #0 min. 42 W/m 7,9 C 7,6 C 26,2 km/h (4 Bft)